createdAt,value
2023-04-09T00:01:11.892Z,27.65
2023-04-09T00:03:39.193Z,26.90
2023-04-09T00:06:06.774Z,30.48
2023-04-09T00:08:33.721Z,25.42
2023-04-09T00:11:00.504Z,28.45
2023-04-09T00:13:38.482Z,24.02
2023-04-09T00:16:06.657Z,29.13
2023-04-09T00:18:33.374Z,30.65
2023-04-09T00:21:00.103Z,28.35
2023-04-09T00:23:26.805Z,31.40
2023-04-09T00:25:53.666Z,30.17
2023-04-09T00:28:20.670Z,27.48
2023-04-09T00:30:47.390Z,29.90
2023-04-09T00:33:14.080Z,32.42
2023-04-09T00:35:41.153Z,33.58
2023-04-09T00:38:07.922Z,36.47
2023-04-09T00:40:34.621Z,34.63
2023-04-09T00:43:02.483Z,36.85
2023-04-09T00:45:29.317Z,36.40
2023-04-09T00:47:56.200Z,36.45
2023-04-09T00:50:22.981Z,36.50
2023-04-09T00:52:49.769Z,42.17
2023-04-09T00:55:17.971Z,43.00
2023-04-09T00:57:44.692Z,40.10
2023-04-09T01:00:13.170Z,43.47
2023-04-09T01:02:40.849Z,43.08
2023-04-09T01:05:08.229Z,43.05
2023-04-09T01:08:13.567Z,43.85
2023-04-09T01:10:54.108Z,46.35
2023-04-09T01:13:42.302Z,47.63
2023-04-09T01:16:12.237Z,49.17
2023-04-09T01:19:02.192Z,56.95
2023-04-09T01:21:34.351Z,52.40
2023-04-09T01:24:26.532Z,53.45
2023-04-09T01:27:06.818Z,55.78
2023-04-09T01:29:53.266Z,53.67
2023-04-09T01:32:21.171Z,56.70
2023-04-09T01:34:49.275Z,54.60
2023-04-09T01:39:43.383Z,54.60
2023-04-09T01:42:12.292Z,58.53
2023-04-09T01:44:40.481Z,54.65
2023-04-09T01:47:08.928Z,55.80
2023-04-09T01:49:36.293Z,55.17
2023-04-09T01:52:03.460Z,54.95
2023-04-09T01:54:30.288Z,54.17
2023-04-09T01:56:57.833Z,51.95
2023-04-09T01:59:24.743Z,53.15
2023-04-09T02:01:59.864Z,51.67
2023-04-09T02:04:34.397Z,55.00
2023-04-09T02:07:15.540Z,53.67
2023-04-09T02:09:46.102Z,55.80
2023-04-09T02:12:16.794Z,49.55
2023-04-09T02:14:47.194Z,54.28
2023-04-09T02:17:13.950Z,52.17
2023-04-09T02:19:40.745Z,51.13
2023-04-09T02:22:07.961Z,53.28
2023-04-09T02:24:34.694Z,49.70
2023-04-09T02:27:02.230Z,50.10
2023-04-09T02:29:29.056Z,54.40
2023-04-09T02:31:55.705Z,47.50
2023-04-09T02:34:23.216Z,54.72
2023-04-09T02:36:49.900Z,51.40
2023-04-09T02:39:16.787Z,50.75
2023-04-09T02:41:44.030Z,51.25
2023-04-09T02:44:10.759Z,49.75
2023-04-09T02:46:38.816Z,52.17
2023-04-09T02:49:05.626Z,54.05
2023-04-09T02:51:34.833Z,50.97
2023-04-09T02:54:02.045Z,49.45
2023-04-09T02:56:28.790Z,51.88
2023-04-09T02:58:55.620Z,50.28
2023-04-09T03:01:22.851Z,49.25
2023-04-09T03:03:50.204Z,50.38
2023-04-09T03:06:18.514Z,52.05
2023-04-09T03:08:45.642Z,47.00
2023-04-09T03:11:12.414Z,50.20
2023-04-09T03:13:39.137Z,50.20
2023-04-09T03:16:06.328Z,53.00
2023-04-09T03:18:33.054Z,54.67
2023-04-09T03:20:59.802Z,49.17
2023-04-09T03:23:31.007Z,51.95
2023-04-09T03:26:06.265Z,50.00
2023-04-09T03:28:45.392Z,52.65
2023-04-09T03:31:14.011Z,49.97
2023-04-09T03:33:42.298Z,54.70
2023-04-09T03:36:10.117Z,49.90
2023-04-09T03:38:57.193Z,55.50
2023-04-09T03:41:31.521Z,48.83
2023-04-09T03:44:02.556Z,54.42
2023-04-09T03:46:36.334Z,52.55
2023-04-09T03:49:03.434Z,49.80
2023-04-09T03:51:38.750Z,49.38
2023-04-09T03:54:05.634Z,51.55
2023-04-09T03:56:33.102Z,52.15
2023-04-09T03:59:01.331Z,54.90
2023-04-09T04:01:36.799Z,50.30
2023-04-09T04:04:03.663Z,51.30
2023-04-09T04:06:35.970Z,50.67
2023-04-09T04:09:22.980Z,53.70
2023-04-09T04:11:58.966Z,52.95
2023-04-09T04:14:39.883Z,56.10
2023-04-09T04:17:17.502Z,51.40
2023-04-09T04:19:44.463Z,50.80
2023-04-09T04:22:11.306Z,57.55
2023-04-09T04:24:41.473Z,53.95
2023-04-09T04:27:08.547Z,54.78
2023-04-09T04:29:37.652Z,51.92
2023-04-09T04:32:11.723Z,53.30
2023-04-09T04:34:38.819Z,56.00
2023-04-09T04:37:15.445Z,51.35
2023-04-09T04:39:42.315Z,54.33
2023-04-09T04:42:12.680Z,56.58
2023-04-09T04:44:39.829Z,57.45
2023-04-09T04:47:26.845Z,55.57
2023-04-09T04:49:53.611Z,56.47
2023-04-09T04:52:21.412Z,57.33
2023-04-09T04:54:51.458Z,55.83
2023-04-09T04:57:22.010Z,55.10
2023-04-09T04:59:48.789Z,55.08
2023-04-09T05:02:17.491Z,57.67
2023-04-09T05:05:02.095Z,55.88
2023-04-09T05:07:36.003Z,56.17
2023-04-09T05:10:03.654Z,53.70
2023-04-09T05:12:36.514Z,56.65
2023-04-09T05:15:04.542Z,51.60
2023-04-09T05:17:31.430Z,54.50
2023-04-09T05:19:58.186Z,55.60
2023-04-09T05:22:44.086Z,54.60
2023-04-09T05:25:11.067Z,55.53
2023-04-09T05:27:40.767Z,60.10
2023-04-09T05:30:08.705Z,55.65
2023-04-09T05:32:35.634Z,53.88
2023-04-09T05:35:03.047Z,55.50
2023-04-09T05:37:31.388Z,52.47
2023-04-09T05:39:58.066Z,53.00
2023-04-09T05:42:25.209Z,57.58
2023-04-09T05:45:05.488Z,54.35
2023-04-09T05:47:32.513Z,55.95
2023-04-09T05:50:04.503Z,54.25
2023-04-09T05:52:32.177Z,49.72
2023-04-09T05:54:59.071Z,56.80
2023-04-09T05:57:38.643Z,52.63
2023-04-09T06:00:08.198Z,57.10
2023-04-09T06:02:43.208Z,51.10
2023-04-09T06:05:10.334Z,51.63
2023-04-09T06:07:37.090Z,51.88
2023-04-09T06:10:04.002Z,53.33
2023-04-09T06:12:30.656Z,48.92
2023-04-09T06:14:57.300Z,46.25
2023-04-09T06:17:24.036Z,49.35
2023-04-09T06:19:50.876Z,48.05
2023-04-09T06:22:17.575Z,47.13
2023-04-09T06:24:44.345Z,51.63
2023-04-09T06:27:11.253Z,49.55
2023-04-09T06:29:37.911Z,52.63
2023-04-09T06:32:05.785Z,48.50
2023-04-09T06:36:59.143Z,47.00
2023-04-09T06:39:25.791Z,46.25
2023-04-09T06:41:52.609Z,48.40
2023-04-09T06:44:37.529Z,46.40
2023-04-09T06:47:04.248Z,48.20
2023-04-09T06:49:31.066Z,48.13
2023-04-09T06:51:58.106Z,47.75
2023-04-09T06:54:24.999Z,44.35
2023-04-09T06:56:51.919Z,52.25
2023-04-09T06:59:18.692Z,51.25
2023-04-09T07:01:45.917Z,46.63
2023-04-09T07:04:12.822Z,46.10
2023-04-09T07:06:40.474Z,50.28
2023-04-09T07:09:07.562Z,41.58
2023-04-09T07:11:34.224Z,50.97
2023-04-09T07:14:00.943Z,47.53
2023-04-09T07:16:27.610Z,48.63
2023-04-09T07:18:54.261Z,46.40
2023-04-09T07:21:21.032Z,46.10
2023-04-09T07:23:47.957Z,44.13
2023-04-09T07:26:14.886Z,46.05
2023-04-09T07:28:42.308Z,48.57
2023-04-09T07:31:09.535Z,47.28
2023-04-09T07:33:36.246Z,46.90
2023-04-09T07:36:03.199Z,48.05
2023-04-09T07:38:30.377Z,46.20
2023-04-09T07:40:57.146Z,44.05
2023-04-09T07:43:23.892Z,47.53
2023-04-09T07:45:53.334Z,54.38
2023-04-09T07:48:20.028Z,63.35
2023-04-09T07:50:46.711Z,57.38
2023-04-09T07:53:13.434Z,47.00
2023-04-09T07:55:41.019Z,50.10
2023-04-09T07:58:09.952Z,47.10
2023-04-09T08:00:39.089Z,47.38
2023-04-09T08:03:05.986Z,43.03
2023-04-09T08:05:32.727Z,44.67
2023-04-09T08:07:59.380Z,48.05
2023-04-09T08:10:26.124Z,44.97
2023-04-09T08:12:52.915Z,46.45
2023-04-09T08:15:20.086Z,42.53
2023-04-09T08:17:46.864Z,43.35
2023-04-09T08:20:13.757Z,42.95
2023-04-09T08:22:41.217Z,44.00
2023-04-09T08:25:08.220Z,41.90
2023-04-09T08:27:36.101Z,43.77
2023-04-09T08:30:03.712Z,41.72
2023-04-09T08:32:30.538Z,45.08
2023-04-09T08:34:57.351Z,37.97
2023-04-09T08:37:24.051Z,37.65
2023-04-09T08:39:50.948Z,37.05
2023-04-09T08:42:19.049Z,42.30
2023-04-09T08:47:13.563Z,44.70
2023-04-09T08:49:41.326Z,41.25
2023-04-09T08:52:08.368Z,43.38
2023-04-09T08:54:35.636Z,38.33
2023-04-09T08:57:05.456Z,36.47
2023-04-09T08:59:36.832Z,41.90
2023-04-09T09:02:07.834Z,39.53
2023-04-09T09:04:50.921Z,40.45
2023-04-09T09:07:17.791Z,40.38
2023-04-09T09:09:58.769Z,39.90
2023-04-09T09:12:34.661Z,39.05
2023-04-09T09:15:01.587Z,39.53
2023-04-09T09:17:28.399Z,37.47
2023-04-09T09:19:55.212Z,39.25
2023-04-09T09:22:21.945Z,39.42
2023-04-09T09:24:50.626Z,39.58
2023-04-09T09:27:39.621Z,37.30
2023-04-09T09:30:08.587Z,36.58
2023-04-09T09:32:35.926Z,31.70
2023-04-09T09:35:04.758Z,38.10
2023-04-09T09:37:32.135Z,43.97
2023-04-09T09:39:59.907Z,38.90
2023-04-09T09:42:27.585Z,35.25
2023-04-09T09:44:55.399Z,40.78
2023-04-09T09:52:28.330Z,34.03
2023-04-09T09:54:58.864Z,35.20
2023-04-09T09:57:30.655Z,34.85
2023-04-09T10:00:08.068Z,42.85
2023-04-09T10:02:48.307Z,31.98
2023-04-09T10:05:15.788Z,34.43
2023-04-09T10:07:43.587Z,32.22
2023-04-09T10:10:10.668Z,33.40
2023-04-09T10:12:38.787Z,26.50
2023-04-09T10:15:06.382Z,26.20
2023-04-09T10:17:33.083Z,24.52
2023-04-09T10:22:40.375Z,28.85
2023-04-09T10:25:08.131Z,27.30
2023-04-09T10:30:01.803Z,25.03
2023-04-09T10:32:36.201Z,26.48
2023-04-09T10:35:04.246Z,26.00
2023-04-09T10:39:58.014Z,20.57
2023-04-09T10:42:35.268Z,21.98
2023-04-09T10:45:08.421Z,21.02
2023-04-09T10:47:40.481Z,17.75
2023-04-09T10:50:30.871Z,21.23
2023-04-09T10:53:00.334Z,23.17
2023-04-09T10:55:38.437Z,21.98
2023-04-09T10:58:07.184Z,20.30
2023-04-09T11:00:46.457Z,21.08
2023-04-09T11:03:29.013Z,22.63
2023-04-09T11:06:09.074Z,23.88
2023-04-09T11:08:37.947Z,25.95
2023-04-09T11:11:04.885Z,34.63
2023-04-09T11:13:32.882Z,17.73
2023-04-09T11:16:01.423Z,21.77
2023-04-09T11:18:30.745Z,20.08
2023-04-09T11:20:59.560Z,19.13
2023-04-09T11:23:27.491Z,18.15
2023-04-09T11:25:55.308Z,18.35
2023-04-09T11:30:52.961Z,18.73
2023-04-09T11:33:20.395Z,21.17
2023-04-09T11:35:48.340Z,17.95
2023-04-09T11:38:15.300Z,21.65
2023-04-09T11:40:49.487Z,15.83
2023-04-09T11:43:17.117Z,16.92
2023-04-09T11:45:44.429Z,15.05
2023-04-09T11:48:12.273Z,22.95
2023-04-09T11:53:19.497Z,15.83
2023-04-09T11:55:51.575Z,20.02
2023-04-09T11:58:19.081Z,16.65
2023-04-09T12:00:46.152Z,14.25
2023-04-09T12:03:13.499Z,15.98
2023-04-09T12:05:50.648Z,13.55
2023-04-09T12:08:23.817Z,11.18
2023-04-09T12:10:53.565Z,13.27
2023-04-09T12:13:20.964Z,13.07
2023-04-09T12:15:49.214Z,14.30
2023-04-09T12:18:15.996Z,15.02
2023-04-09T12:20:44.763Z,15.07
2023-04-09T12:23:12.549Z,15.40
2023-04-09T12:28:08.815Z,12.85
2023-04-09T12:30:36.276Z,13.40
2023-04-09T12:33:04.102Z,12.68
2023-04-09T12:37:59.385Z,13.40
2023-04-09T12:40:26.452Z,12.50
2023-04-09T12:42:54.104Z,13.87
2023-04-09T12:45:21.473Z,14.93
2023-04-09T12:47:48.753Z,14.07
2023-04-09T12:50:18.807Z,14.30
2023-04-09T12:52:46.315Z,10.40
2023-04-09T12:55:14.069Z,12.65
2023-04-09T13:00:09.776Z,12.20
2023-04-09T13:02:36.965Z,10.95
2023-04-09T13:05:04.647Z,12.10
2023-04-09T13:07:31.448Z,11.90
2023-04-09T13:09:58.206Z,11.07
2023-04-09T13:12:25.463Z,11.85
2023-04-09T13:14:54.420Z,11.27
2023-04-09T13:17:21.789Z,9.63
2023-04-09T13:19:48.802Z,9.98
2023-04-09T13:22:15.506Z,12.85
2023-04-09T13:24:43.288Z,11.40
2023-04-09T13:29:38.561Z,11.10
2023-04-09T13:32:10.861Z,12.20
2023-04-09T13:34:38.754Z,12.10
2023-04-09T13:37:05.708Z,9.60
2023-04-09T13:39:33.030Z,7.63
2023-04-09T13:42:02.503Z,10.55
2023-04-09T13:44:32.644Z,10.27
2023-04-09T13:46:59.502Z,9.45
2023-04-09T13:49:27.472Z,12.10
2023-04-09T13:51:54.274Z,6.90
2023-04-09T13:54:20.985Z,10.80
2023-04-09T13:56:47.748Z,13.02
2023-04-09T13:59:14.402Z,14.27
2023-04-09T14:01:41.362Z,9.50
2023-04-09T14:04:08.379Z,10.40
2023-04-09T14:06:35.288Z,11.05
2023-04-09T14:09:02.065Z,6.47
2023-04-09T14:11:28.953Z,9.37
2023-04-09T14:13:56.023Z,8.05
2023-04-09T14:16:23.713Z,7.53
2023-04-09T14:18:50.811Z,7.90
2023-04-09T14:21:18.484Z,7.60
2023-04-09T14:23:45.312Z,8.75
2023-04-09T14:26:12.104Z,7.15
2023-04-09T14:28:38.893Z,6.53
2023-04-09T14:31:06.395Z,7.77
2023-04-09T14:33:33.074Z,7.45
2023-04-09T14:35:59.904Z,9.63
2023-04-09T14:38:26.811Z,10.03
2023-04-09T14:40:53.621Z,7.77
2023-04-09T14:43:20.506Z,6.07
2023-04-09T14:45:47.457Z,7.55
2023-04-09T14:48:14.159Z,8.95
2023-04-09T14:50:41.249Z,6.68
2023-04-09T14:53:08.105Z,6.80
2023-04-09T14:55:34.804Z,8.77
2023-04-09T14:58:04.450Z,7.20
2023-04-09T15:00:31.964Z,7.50
2023-04-09T15:02:59.276Z,7.20
2023-04-09T15:05:27.176Z,6.93
2023-04-09T15:07:55.575Z,9.00
2023-04-09T15:10:22.258Z,5.75
2023-04-09T15:12:49.008Z,8.10
2023-04-09T15:15:15.690Z,4.93
2023-04-09T15:17:42.529Z,5.47
2023-04-09T15:20:09.666Z,5.95
2023-04-09T15:22:36.429Z,7.05
2023-04-09T15:25:03.319Z,5.25
2023-04-09T15:27:30.301Z,5.93
2023-04-09T15:29:57.015Z,6.50
2023-04-09T15:32:26.421Z,5.47
2023-04-09T15:34:53.136Z,4.93
2023-04-09T15:37:22.995Z,5.60
2023-04-09T15:42:20.349Z,5.35
2023-04-09T15:44:47.072Z,8.23
2023-04-09T15:47:13.911Z,6.90
2023-04-09T15:49:41.264Z,7.35
2023-04-09T15:52:09.234Z,5.68
2023-04-09T15:54:36.039Z,7.93
2023-04-09T15:57:05.644Z,5.65
2023-04-09T15:59:32.365Z,5.25
2023-04-09T16:01:59.848Z,5.20
2023-04-09T16:06:55.460Z,9.98
2023-04-09T16:09:22.822Z,5.80
2023-04-09T16:11:50.995Z,5.95
2023-04-09T16:14:17.849Z,6.68
2023-04-09T16:16:49.535Z,5.57
2023-04-09T16:19:20.423Z,7.25
2023-04-09T16:21:47.521Z,5.80
2023-04-09T16:24:14.915Z,6.43
2023-04-09T16:29:12.737Z,3.90
2023-04-09T16:31:42.217Z,4.57
2023-04-09T16:34:09.140Z,5.07
2023-04-09T16:36:37.131Z,4.53
2023-04-09T16:39:04.794Z,4.60
2023-04-09T16:41:31.699Z,5.65
2023-04-09T16:43:58.556Z,5.00
2023-04-09T16:46:25.421Z,4.95
2023-04-09T16:48:52.395Z,4.05
2023-04-09T16:51:19.396Z,5.95
2023-04-09T16:53:46.215Z,4.38
2023-04-09T16:56:12.968Z,4.05
2023-04-09T16:58:39.837Z,6.82
2023-04-09T17:01:06.594Z,6.75
2023-04-09T17:03:33.417Z,5.75
2023-04-09T17:06:00.350Z,4.35
2023-04-09T17:08:27.117Z,8.10
2023-04-09T17:11:01.884Z,12.57
2023-04-09T17:13:29.810Z,5.18
2023-04-09T17:15:56.833Z,4.68
2023-04-09T17:18:23.982Z,3.53
2023-04-09T17:20:51.039Z,6.07
2023-04-09T17:23:17.989Z,4.20
2023-04-09T17:25:44.866Z,5.60
2023-04-09T17:28:11.940Z,6.38
2023-04-09T17:30:38.673Z,6.57
2023-04-09T17:33:05.890Z,4.97
2023-04-09T17:35:32.842Z,4.45
2023-04-09T17:38:01.251Z,19.60
2023-04-09T17:40:28.549Z,13.38
2023-04-09T17:42:55.634Z,14.18
2023-04-09T17:45:22.302Z,19.92
2023-04-09T17:47:51.105Z,6.75
2023-04-09T17:50:18.366Z,8.27
2023-04-09T17:52:45.126Z,6.85
2023-04-09T17:55:12.952Z,8.40
2023-04-09T18:00:08.254Z,7.65
2023-04-09T18:02:46.088Z,7.07
2023-04-09T18:05:13.226Z,8.65
2023-04-09T18:07:40.026Z,7.47
2023-04-09T18:10:07.075Z,9.15
2023-04-09T18:12:33.738Z,16.30
2023-04-09T18:15:00.401Z,9.00
2023-04-09T18:17:27.189Z,9.00
2023-04-09T18:19:54.789Z,15.65
2023-04-09T18:22:21.813Z,10.75
2023-04-09T18:24:48.584Z,9.65
2023-04-09T18:27:16.247Z,11.20
2023-04-09T18:29:43.032Z,12.48
2023-04-09T18:32:09.694Z,12.02
2023-04-09T18:34:37.393Z,18.13
2023-04-09T18:37:04.065Z,13.10
2023-04-09T18:39:31.018Z,25.40
2023-04-09T18:41:57.979Z,68.17
2023-04-09T18:44:24.678Z,12.83
2023-04-09T18:46:52.162Z,13.70
2023-04-09T18:49:18.909Z,13.73
2023-04-09T18:51:45.638Z,25.95
2023-04-09T18:54:12.726Z,38.35
2023-04-09T18:56:40.014Z,18.40
2023-04-09T18:59:06.841Z,20.02
2023-04-09T19:01:33.605Z,15.38
2023-04-09T19:04:00.529Z,21.15
2023-04-09T19:06:28.002Z,15.73
2023-04-09T19:08:58.137Z,13.80
2023-04-09T19:11:26.079Z,17.63
2023-04-09T19:16:20.960Z,14.88
2023-04-09T19:18:47.940Z,13.05
2023-04-09T19:21:14.642Z,12.70
2023-04-09T19:23:41.314Z,13.48
2023-04-09T19:26:08.002Z,13.15
2023-04-09T19:28:34.814Z,11.55
2023-04-09T19:31:03.395Z,10.90
2023-04-09T19:33:30.432Z,14.57
2023-04-09T19:35:57.270Z,11.23
2023-04-09T19:38:23.936Z,11.35
2023-04-09T19:40:50.952Z,11.90
2023-04-09T19:43:17.600Z,8.67
2023-04-09T19:45:44.540Z,11.30
2023-04-09T19:48:12.313Z,11.75
2023-04-09T19:50:40.984Z,10.10
2023-04-09T19:53:07.729Z,9.32
2023-04-09T19:55:34.847Z,10.45
2023-04-09T19:58:01.934Z,11.00
2023-04-09T20:00:29.280Z,9.50
2023-04-09T20:02:57.241Z,11.30
2023-04-09T20:05:24.231Z,11.48
2023-04-09T20:07:52.807Z,15.10
2023-04-09T20:10:19.850Z,12.32
2023-04-09T20:12:47.935Z,10.87
2023-04-09T20:15:15.301Z,222.65
2023-04-09T20:17:42.016Z,45.67
2023-04-09T20:20:09.266Z,34.08
2023-04-09T20:22:36.112Z,23.30
2023-04-09T20:25:02.840Z,77.03
2023-04-09T20:27:29.537Z,79.65
2023-04-09T20:29:56.475Z,46.38
2023-04-09T20:32:23.191Z,30.77
2023-04-09T20:34:49.888Z,29.42
2023-04-09T20:37:16.579Z,42.67
2023-04-09T20:39:43.437Z,47.15
2023-04-09T20:42:10.176Z,36.60
2023-04-09T20:44:36.835Z,30.88
2023-04-09T20:47:03.509Z,25.67
2023-04-09T20:49:30.194Z,17.50
2023-04-09T20:51:56.909Z,27.67
2023-04-09T20:54:23.637Z,25.77
2023-04-09T20:56:51.360Z,23.05
2023-04-09T20:59:19.323Z,24.23
2023-04-09T21:04:13.173Z,16.77
2023-04-09T21:06:40.444Z,23.67
2023-04-09T21:09:07.108Z,24.48
2023-04-09T21:11:33.802Z,24.52
2023-04-09T21:14:00.624Z,17.52
2023-04-09T21:16:28.572Z,31.60
2023-04-09T21:21:22.494Z,22.67
2023-04-09T21:23:49.185Z,16.55
2023-04-09T21:26:15.874Z,14.00
2023-04-09T21:28:42.974Z,11.55
2023-04-09T21:31:11.061Z,9.67
2023-04-09T21:33:39.286Z,11.27
2023-04-09T21:36:07.933Z,12.27
2023-04-09T21:38:34.909Z,11.20
2023-04-09T21:41:01.890Z,8.63
2023-04-09T21:43:29.425Z,10.13
2023-04-09T21:45:57.092Z,10.98
2023-04-09T21:48:24.168Z,11.85
2023-04-09T21:50:50.979Z,9.73
2023-04-09T21:53:17.761Z,22.30
2023-04-09T21:55:44.610Z,30.00
2023-04-09T21:58:12.042Z,13.73
2023-04-09T22:00:38.811Z,9.88
2023-04-09T22:03:05.647Z,11.30
2023-04-09T22:05:34.418Z,10.38
2023-04-09T22:08:01.294Z,10.77
2023-04-09T22:10:28.456Z,10.48
2023-04-09T22:12:55.810Z,10.35
2023-04-09T22:15:22.562Z,10.15
2023-04-09T22:17:49.344Z,10.05
2023-04-09T22:20:16.212Z,9.30
2023-04-09T22:22:43.019Z,9.82
2023-04-09T22:25:11.645Z,10.27
2023-04-09T22:27:38.486Z,12.00
2023-04-09T22:30:06.616Z,12.02
2023-04-09T22:32:33.587Z,8.90
2023-04-09T22:35:00.606Z,11.07
2023-04-09T22:37:27.866Z,8.73
2023-04-09T22:39:54.596Z,9.57
2023-04-09T22:42:21.528Z,9.15
2023-04-09T22:44:48.356Z,10.52
2023-04-09T22:47:15.123Z,9.90
2023-04-09T22:49:41.783Z,10.30
2023-04-09T22:52:08.532Z,13.52
2023-04-09T22:54:35.499Z,9.88
2023-04-09T22:57:02.332Z,11.00
2023-04-09T22:59:38.968Z,14.30
2023-04-09T23:02:06.705Z,10.63
2023-04-09T23:04:34.935Z,9.80
2023-04-09T23:07:02.514Z,11.27
2023-04-09T23:09:30.984Z,8.68
2023-04-09T23:11:57.976Z,8.40
2023-04-09T23:14:24.717Z,9.83
2023-04-09T23:16:51.401Z,9.23
2023-04-09T23:19:18.072Z,8.65
2023-04-09T23:21:44.799Z,9.43
2023-04-09T23:24:11.568Z,24.83
2023-04-09T23:26:38.224Z,11.98
2023-04-09T23:29:04.904Z,15.75
2023-04-09T23:31:32.109Z,10.57
2023-04-09T23:33:58.924Z,8.88
2023-04-09T23:36:26.151Z,10.02
2023-04-09T23:38:52.819Z,9.20
2023-04-09T23:41:19.603Z,9.48
2023-04-09T23:43:46.921Z,8.75
2023-04-09T23:46:13.625Z,10.02
2023-04-09T23:48:40.407Z,8.70
2023-04-09T23:51:07.229Z,9.90
2023-04-09T23:53:33.883Z,9.15
2023-04-09T23:56:00.727Z,9.45
2023-04-09T23:58:27.419Z,7.53
